CheckWX is a tool to help pilots better visualize weather data.  It is not intended as a substitute for an official pre-flight weather briefing.

02:13:49 UTC

UUEE METAR
Sheremetyevo International Airport
Moscow, Russian Federation
Current

44 mins ago

UUEE 080130Z 21005G10MPS 180V240 9999 OVC015 M00/M03 Q0998 R24L/150057 R24C/CLRD62 R24R/150057 NOSIG
Observed
Dec-8 @ 01:30 UTC
Wind
  • 210° at 10 KTS
  • Gusting to 19 KTS
Visibility
10,000+ meters
Flight Rules
MVFR
Cloud Levels
  • Overcast at 1,500' AGL
Temperature
C / 32°F
Dewpoint
-3°C / 27°F
Humidity
80%
Altimeter
29.47" Hg
Pressure
997.92 hPa
Previous

1 hour ago

UUEE 080100Z 20007MPS 9999 OVC016 M00/M04 Q0998 R24L/150057 R24C/CLRD62 R24R/150057 NOSIG
Observed
Dec-8 @ 01:00 UTC
Wind
  • 200° at 14 KTS
Visibility
10,000+ meters
Flight Rules
MVFR
Cloud Levels
  • Overcast at 1,600' AGL
Temperature
C / 32°F
Dewpoint
-4°C / 25°F
Humidity
75%
Altimeter
29.47" Hg
Pressure
997.92 hPa
Previous

2 hours ago

UUEE 080030Z 20007MPS 9999 OVC018 M00/M04 Q0998 R24L/150057 R24C/CLRD62 R24R/150057 NOSIG
Observed
Dec-8 @ 00:30 UTC
Wind
  • 200° at 14 KTS
Visibility
10,000+ meters
Flight Rules
MVFR
Cloud Levels
  • Overcast at 1,800' AGL
Temperature
C / 32°F
Dewpoint
-4°C / 25°F
Humidity
75%
Altimeter
29.47" Hg
Pressure
997.92 hPa